Time;durP1;ratioP1;P1;durP2;ratioP2;P2;SDS_P1;SDS_P2;PMS_P1;PMS_P2;Temp;Humidity;BMP_temperature;BMP_pressure;BME280_temperature;BME280_humidity;BME280_pressure;Samples;Min_cycle;Max_cycle;Signal;HPM_P1;HPM_P2
2023/08/12 00:01:31;;;;;;;3.78;1.80;;;19.00;99.90;;;;;;4970177;28;20093;-74
2023/08/12 00:03:57;;;;;;;1.67;1.58;;;19.00;99.90;;;;;;4970207;28;20079;-74
2023/08/12 00:06:23;;;;;;;2.72;1.83;;;19.00;99.90;;;;;;4977459;28;20038;-75
2023/08/12 00:08:48;;;;;;;1.58;1.27;;;19.00;99.90;;;;;;4989310;28;20038;-74
2023/08/12 00:11:14;;;;;;;2.85;1.20;;;18.90;99.90;;;;;;4989737;28;20042;-75
2023/08/12 00:13:40;;;;;;;1.08;1.08;;;18.90;99.90;;;;;;4989587;28;20035;-73
2023/08/12 00:16:05;;;;;;;3.03;1.20;;;18.90;99.90;;;;;;4989357;28;20038;-74
2023/08/12 00:18:36;;;;;;;3.50;1.38;;;18.90;99.90;;;;;;4989731;28;20037;-75
2023/08/12 00:21:07;;;;;;;2.92;2.00;;;18.90;99.90;;;;;;4989266;28;20037;-74
2023/08/12 00:23:37;;;;;;;1.70;1.20;;;18.90;99.90;;;;;;4952582;28;20039;-74
2023/08/12 00:26:02;;;;;;;2.38;1.45;;;18.90;99.90;;;;;;4970165;28;20494;-74
2023/08/12 00:28:28;;;;;;;2.05;1.80;;;19.00;99.90;;;;;;4969882;28;20041;-74
2023/08/12 00:30:54;;;;;;;1.80;1.63;;;19.00;99.90;;;;;;4972695;28;20023;-74
2023/08/12 00:33:19;;;;;;;3.05;1.15;;;19.10;99.90;;;;;;4974189;28;20361;-75
2023/08/12 00:35:45;;;;;;;5.15;2.22;;;19.00;99.90;;;;;;4974101;28;20027;-75
2023/08/12 00:38:10;;;;;;;1.67;1.58;;;18.90;99.90;;;;;;4972763;28;20038;-74
2023/08/12 00:40:36;;;;;;;2.15;1.00;;;19.00;99.90;;;;;;4974079;28;20070;-74
2023/08/12 00:43:03;;;;;;;1.40;1.30;;;19.00;99.90;;;;;;4973719;28;20038;-75
2023/08/12 00:45:29;;;;;;;6.95;1.52;;;19.00;99.90;;;;;;4972190;28;20034;-74
2023/08/12 00:47:54;;;;;;;2.13;1.45;;;19.00;99.90;;;;;;4977640;28;20748;-74
2023/08/12 00:50:21;;;;;;;0.85;0.85;;;19.00;99.90;;;;;;4981814;28;20026;-74
2023/08/12 00:52:47;;;;;;;2.10;1.92;;;19.00;99.90;;;;;;4983274;28;20031;-75
2023/08/12 00:55:13;;;;;;;1.42;1.33;;;19.00;99.90;;;;;;4983906;28;20031;-74
2023/08/12 00:57:39;;;;;;;1.58;1.48;;;18.90;99.90;;;;;;4982757;28;20074;-74
2023/08/12 01:00:05;;;;;;;1.63;1.45;;;18.90;99.90;;;;;;4982623;28;20055;-74
2023/08/12 01:02:31;;;;;;;1.38;1.23;;;18.70;99.90;;;;;;4965179;28;20242;-74
2023/08/12 01:04:58;;;;;;;1.13;1.02;;;18.80;99.90;;;;;;4982032;28;20023;-74
2023/08/12 01:07:23;;;;;;;3.42;1.52;;;18.90;99.90;;;;;;4964784;28;20043;-76
2023/08/12 01:09:49;;;;;;;1.98;1.70;;;18.80;99.90;;;;;;4982717;28;20033;-74
2023/08/12 01:12:21;;;;;;;3.63;1.45;;;18.90;99.90;;;;;;4982797;28;20271;-74
2023/08/12 01:15:04;;;;;;;1.52;1.45;;;18.90;99.90;;;;;;4982308;28;20062;-74
2023/08/12 01:17:33;;;;;;;1.83;1.25;;;18.80;99.90;;;;;;4982094;28;20095;-74
2023/08/12 01:19:59;;;;;;;1.02;1.02;;;18.90;99.90;;;;;;4981312;28;20041;-75
2023/08/12 01:22:29;;;;;;;2.85;1.20;;;18.80;99.90;;;;;;4982565;28;20026;-74
2023/08/12 01:24:55;;;;;;;1.98;1.80;;;18.90;99.90;;;;;;4982538;28;20031;-74
2023/08/12 01:27:21;;;;;;;1.40;1.30;;;18.80;99.90;;;;;;4982069;28;20035;-74
2023/08/12 01:29:49;;;;;;;11.52;1.40;;;18.90;99.90;;;;;;4982080;28;20026;-74
2023/08/12 01:32:40;;;;;;;1.42;1.33;;;19.00;99.90;;;;;;4982288;28;20019;-74
2023/08/12 01:35:14;;;;;;;4.68;1.50;;;18.90;99.90;;;;;;4981969;28;20535;-76
2023/08/12 01:37:42;;;;;;;4.32;1.40;;;18.80;99.90;;;;;;4982461;28;20025;-74
2023/08/12 01:40:10;;;;;;;2.47;1.10;;;18.70;99.90;;;;;;4981854;28;20120;-74
2023/08/12 01:42:38;;;;;;;1.58;1.30;;;18.80;99.90;;;;;;4982226;28;20042;-74
2023/08/12 01:45:04;;;;;;;1.73;1.63;;;18.70;99.90;;;;;;4981867;28;20208;-74
2023/08/12 01:47:32;;;;;;;3.55;1.40;;;18.70;99.90;;;;;;4981261;28;20058;-74
2023/08/12 01:49:57;;;;;;;1.77;1.30;;;18.70;99.90;;;;;;4981756;28;20414;-74
2023/08/12 01:52:24;;;;;;;1.27;1.10;;;18.70;99.90;;;;;;4981615;28;20030;-74
2023/08/12 01:54:50;;;;;;;4.72;1.33;;;18.80;99.90;;;;;;4981634;28;20210;-74
2023/08/12 01:57:15;;;;;;;4.07;2.22;;;18.80;99.90;;;;;;4982224;28;20340;-74
2023/08/12 01:59:43;;;;;;;1.40;1.30;;;18.90;99.90;;;;;;4944347;28;1116617;-74
2023/08/12 02:02:09;;;;;;;3.47;1.17;;;18.90;99.90;;;;;;4983304;28;20066;-74
2023/08/12 02:04:36;;;;;;;1.48;1.30;;;18.90;99.90;;;;;;4982814;28;20274;-74
2023/08/12 02:07:02;;;;;;;4.20;1.42;;;18.90;99.90;;;;;;4982743;28;20029;-74
2023/08/12 02:09:27;;;;;;;1.80;1.63;;;18.90;99.90;;;;;;4982867;28;20054;-74
2023/08/12 02:11:53;;;;;;;1.50;1.00;;;18.80;99.90;;;;;;4982529;28;20039;-75
2023/08/12 02:14:18;;;;;;;2.15;1.35;;;18.80;99.90;;;;;;4982101;28;20314;-74
2023/08/12 02:16:44;;;;;;;1.40;1.30;;;18.70;99.90;;;;;;4982157;28;20022;-74
2023/08/12 02:19:10;;;;;;;1.45;1.33;;;18.90;99.90;;;;;;4982419;28;20042;-74
2023/08/12 02:21:35;;;;;;;2.00;1.88;;;18.80;99.90;;;;;;4982241;28;20030;-74
2023/08/12 02:24:01;;;;;;;1.52;1.13;;;18.80;99.90;;;;;;4981619;28;20073;-75
2023/08/12 02:26:27;;;;;;;0.88;0.88;;;18.80;99.90;;;;;;4980640;28;20027;-74
2023/08/12 02:28:52;;;;;;;1.30;1.20;;;18.80;99.90;;;;;;4981002;28;20113;-75
2023/08/12 02:31:18;;;;;;;1.80;1.10;;;18.90;99.90;;;;;;4981882;28;20054;-75
2023/08/12 02:33:43;;;;;;;1.23;1.13;;;18.90;99.90;;;;;;4964326;28;20187;-74
2023/08/12 02:36:09;;;;;;;1.38;1.33;;;18.90;99.90;;;;;;4981043;28;20106;-74
2023/08/12 02:38:35;;;;;;;1.63;1.42;;;19.00;99.90;;;;;;4982202;28;20034;-74
2023/08/12 02:41:00;;;;;;;2.05;1.50;;;19.00;99.90;;;;;;4982577;28;20079;-75
2023/08/12 02:43:26;;;;;;;2.17;1.75;;;19.00;99.90;;;;;;4981035;28;20061;-75
2023/08/12 02:45:52;;;;;;;3.38;1.88;;;18.90;99.90;;;;;;4981677;28;20427;-75
2023/08/12 02:48:18;;;;;;;3.03;1.90;;;19.00;99.90;;;;;;4981649;28;20039;-77
2023/08/12 02:50:43;;;;;;;1.38;1.27;;;19.10;99.90;;;;;;4981479;28;20222;-75
2023/08/12 02:53:09;;;;;;;1.35;1.25;;;18.90;99.90;;;;;;4981219;28;20058;-75
2023/08/12 02:55:35;;;;;;;5.88;1.80;;;18.70;99.90;;;;;;4981483;28;20034;-76
2023/08/12 02:58:01;;;;;;;2.08;1.73;;;18.70;99.90;;;;;;4981796;28;20401;-75
2023/08/12 03:00:27;;;;;;;2.38;1.52;;;18.80;99.90;;;;;;4964142;28;20039;-74
2023/08/12 03:02:54;;;;;;;3.20;1.15;;;18.80;99.90;;;;;;4982003;28;20349;-74
2023/08/12 03:05:20;;;;;;;1.67;1.58;;;18.80;99.90;;;;;;4981884;28;20061;-74
2023/08/12 03:07:46;;;;;;;2.40;1.70;;;18.60;99.90;;;;;;4965076;28;20544;-74
2023/08/12 03:10:11;;;;;;;2.17;1.33;;;18.60;99.90;;;;;;4981493;28;20034;-74
2023/08/12 03:12:37;;;;;;;2.58;1.63;;;18.60;99.90;;;;;;4963982;28;20074;-75
2023/08/12 03:15:05;;;;;;;2.17;1.50;;;18.50;99.90;;;;;;4963678;28;20306;-75
2023/08/12 03:17:31;;;;;;;1.33;1.23;;;18.40;99.90;;;;;;4980862;28;20029;-75
2023/08/12 03:19:59;;;;;;;1.27;1.17;;;18.40;99.90;;;;;;4963772;28;20066;-75
2023/08/12 03:22:25;;;;;;;3.70;2.05;;;18.40;99.90;;;;;;4980350;28;20053;-74
2023/08/12 03:24:51;;;;;;;2.10;1.23;;;18.30;99.90;;;;;;4980101;28;20034;-74
2023/08/12 03:27:16;;;;;;;1.65;1.30;;;18.30;99.90;;;;;;4980846;28;20042;-74
2023/08/12 03:29:42;;;;;;;2.78;1.85;;;18.30;99.90;;;;;;4981274;28;20045;-75
2023/08/12 03:32:11;;;;;;;3.55;2.25;;;18.30;99.90;;;;;;4981021;28;20102;-75
2023/08/12 03:34:36;;;;;;;4.30;1.92;;;18.30;99.90;;;;;;4963761;28;20030;-74
2023/08/12 03:37:02;;;;;;;1.58;1.48;;;18.40;99.90;;;;;;4980092;28;20345;-74
2023/08/12 03:39:27;;;;;;;1.40;1.30;;;18.40;99.90;;;;;;4963420;28;20039;-74
2023/08/12 03:41:53;;;;;;;1.48;1.13;;;18.40;99.90;;;;;;4980769;28;20426;-74
2023/08/12 03:44:19;;;;;;;2.55;1.52;;;18.40;99.90;;;;;;4980946;28;20191;-74
2023/08/12 03:46:45;;;;;;;1.85;1.75;;;18.40;99.90;;;;;;4979584;28;20041;-75
2023/08/12 03:49:10;;;;;;;1.70;1.60;;;18.40;99.90;;;;;;4979461;28;20039;-74
2023/08/12 03:51:36;;;;;;;2.28;1.40;;;18.40;99.90;;;;;;4981227;28;20314;-74
2023/08/12 03:54:02;;;;;;;3.75;1.50;;;18.40;99.90;;;;;;4980328;28;20074;-74
2023/08/12 03:56:27;;;;;;;2.78;1.92;;;18.40;99.90;;;;;;4980845;28;20047;-74
2023/08/12 03:58:53;;;;;;;1.83;1.65;;;18.40;99.90;;;;;;4980246;28;20117;-75
2023/08/12 04:01:19;;;;;;;1.33;1.17;;;18.40;99.90;;;;;;4979827;28;20324;-74
2023/08/12 04:03:44;;;;;;;1.35;1.10;;;18.20;99.90;;;;;;4980054;28;20111;-74
2023/08/12 04:06:10;;;;;;;2.28;1.33;;;18.20;99.90;;;;;;4987086;28;20022;-75
2023/08/12 04:08:36;;;;;;;1.25;1.20;;;18.30;99.90;;;;;;5000041;28;20026;-74
2023/08/12 04:11:01;;;;;;;1.73;1.60;;;18.30;99.90;;;;;;4999946;28;20029;-74
2023/08/12 04:13:27;;;;;;;1.20;1.10;;;18.30;99.90;;;;;;4982854;28;20033;-74
2023/08/12 04:15:55;;;;;;;4.18;2.47;;;18.30;99.90;;;;;;5000071;28;20334;-75
2023/08/12 04:18:21;;;;;;;4.43;1.70;;;18.20;99.90;;;;;;4999912;28;20038;-74
2023/08/12 04:20:49;;;;;;;2.67;1.65;;;18.10;99.90;;;;;;4999200;28;20322;-75
2023/08/12 04:23:15;;;;;;;2.08;1.88;;;18.10;99.90;;;;;;4999309;28;20022;-75
2023/08/12 04:25:44;;;;;;;1.55;1.45;;;18.20;99.90;;;;;;4999369;28;20065;-75
2023/08/12 04:28:10;;;;;;;3.25;2.20;;;18.10;99.90;;;;;;4999729;28;20195;-74
2023/08/12 04:30:35;;;;;;;2.83;2.13;;;18.00;99.90;;;;;;5000159;28;20098;-74
2023/08/12 04:33:01;;;;;;;2.00;1.80;;;18.10;99.90;;;;;;4999543;28;20100;-74
2023/08/12 04:35:26;;;;;;;3.55;1.77;;;18.00;99.90;;;;;;4999121;28;20218;-75
2023/08/12 04:37:52;;;;;;;1.70;1.60;;;18.00;99.90;;;;;;4998991;28;20026;-75
2023/08/12 04:40:17;;;;;;;6.50;1.90;;;18.00;99.90;;;;;;4999302;28;20085;-74
2023/08/12 04:42:43;;;;;;;1.48;1.38;;;18.00;99.90;;;;;;5000007;28;20245;-74
2023/08/12 04:45:10;;;;;;;1.30;1.20;;;18.10;99.90;;;;;;4999050;28;20022;-74
2023/08/12 04:47:35;;;;;;;4.10;1.60;;;18.20;99.90;;;;;;4998745;28;20196;-74
2023/08/12 04:50:02;;;;;;;3.55;1.90;;;18.20;99.90;;;;;;5000045;28;20045;-74
2023/08/12 04:52:28;;;;;;;3.50;2.75;;;18.20;99.90;;;;;;4999331;28;20037;-75
2023/08/12 04:54:54;;;;;;;3.83;1.83;;;18.30;99.90;;;;;;4998506;28;20030;-74
2023/08/12 04:57:19;;;;;;;1.30;1.30;;;18.40;99.90;;;;;;4999525;28;20045;-74
2023/08/12 04:59:45;;;;;;;1.52;1.42;;;18.40;99.90;;;;;;4998955;28;20057;-74
2023/08/12 05:02:11;;;;;;;1.20;1.08;;;18.50;99.90;;;;;;4999008;28;20022;-74
2023/08/12 05:04:37;;;;;;;2.28;1.83;;;18.60;99.90;;;;;;4999147;28;20399;-74
2023/08/12 05:07:02;;;;;;;1.25;1.20;;;18.60;99.90;;;;;;4999534;28;20034;-75
2023/08/12 05:09:28;;;;;;;1.40;1.30;;;18.70;99.90;;;;;;4999425;28;20050;-74
2023/08/12 05:11:53;;;;;;;2.75;1.67;;;18.70;99.90;;;;;;4999520;28;20022;-74
2023/08/12 05:14:19;;;;;;;1.15;1.13;;;18.80;99.90;;;;;;4999508;28;20034;-74
2023/08/12 05:16:45;;;;;;;3.22;1.88;;;18.90;99.90;;;;;;5001954;28;20030;-75
2023/08/12 05:19:10;;;;;;;3.78;1.58;;;19.00;99.90;;;;;;5002493;28;20054;-74
2023/08/12 05:21:36;;;;;;;6.65;1.38;;;19.20;99.90;;;;;;5001655;28;20041;-75
2023/08/12 05:24:01;;;;;;;1.33;1.25;;;19.30;99.90;;;;;;4983873;28;20031;-75
2023/08/12 05:26:28;;;;;;;2.28;2.08;;;19.60;99.90;;;;;;4983792;28;20038;-75
2023/08/12 05:28:53;;;;;;;1.73;1.17;;;19.70;99.90;;;;;;4983639;28;20113;-75
2023/08/12 05:31:19;;;;;;;1.45;1.33;;;19.80;99.90;;;;;;4983321;28;20449;-75
2023/08/12 05:33:45;;;;;;;4.13;1.85;;;19.80;99.90;;;;;;4982691;28;20031;-74
2023/08/12 05:36:10;;;;;;;2.28;1.15;;;19.90;99.90;;;;;;4982822;28;20037;-74
2023/08/12 05:38:36;;;;;;;2.15;1.25;;;19.90;99.90;;;;;;4983574;28;20034;-74
2023/08/12 05:41:03;;;;;;;3.92;1.20;;;19.90;99.90;;;;;;4983115;28;20043;-74
2023/08/12 05:43:29;;;;;;;1.58;1.40;;;20.00;99.90;;;;;;4982827;28;20026;-75
2023/08/12 05:45:55;;;;;;;1.20;1.10;;;20.10;99.90;;;;;;4983127;28;20377;-75
2023/08/12 05:48:20;;;;;;;3.30;1.00;;;20.20;99.90;;;;;;4983007;28;20046;-74
2023/08/12 05:50:46;;;;;;;1.30;1.20;;;20.40;99.90;;;;;;4982729;28;20030;-77
2023/08/12 05:53:11;;;;;;;3.10;1.48;;;20.70;99.90;;;;;;4982721;28;20334;-74
2023/08/12 05:55:37;;;;;;;1.30;1.20;;;20.80;99.90;;;;;;4991692;28;20028;-76
2023/08/12 05:58:03;;;;;;;13.15;1.58;;;20.90;99.90;;;;;;5002281;28;20030;-75
2023/08/12 06:00:28;;;;;;;1.88;1.40;;;20.90;99.90;;;;;;5002354;28;20038;-74
2023/08/12 06:02:54;;;;;;;3.03;1.83;;;21.10;99.90;;;;;;5002241;28;20044;-75
2023/08/12 06:05:20;;;;;;;4.30;1.67;;;21.10;99.90;;;;;;5002545;28;20017;-77
2023/08/12 06:07:45;;;;;;;6.22;1.23;;;21.10;99.90;;;;;;5002309;28;20080;-75
2023/08/12 06:10:11;;;;;;;2.65;2.20;;;21.20;99.90;;;;;;5001764;28;20227;-75
2023/08/12 06:12:36;;;;;;;1.90;1.23;;;21.30;99.90;;;;;;5002696;28;20026;-75
2023/08/12 06:15:02;;;;;;;1.92;1.30;;;21.20;99.90;;;;;;5001264;28;20080;-75
2023/08/12 06:17:28;;;;;;;4.70;1.20;;;21.10;99.90;;;;;;5002542;28;20027;-76
2023/08/12 06:19:53;;;;;;;1.88;1.40;;;21.00;99.90;;;;;;5000999;28;20026;-75
2023/08/12 06:22:19;;;;;;;3.33;1.55;;;20.90;99.90;;;;;;5002112;28;20018;-75
2023/08/12 06:24:45;;;;;;;1.45;1.35;;;20.80;99.90;;;;;;5001577;28;20369;-75
2023/08/12 06:27:10;;;;;;;1.83;1.20;;;20.90;99.90;;;;;;5000842;28;20023;-75
2023/08/12 06:29:36;;;;;;;2.70;1.50;;;20.90;99.90;;;;;;5000731;28;20030;-75
2023/08/12 06:32:01;;;;;;;1.88;1.58;;;20.90;99.90;;;;;;5000830;28;20231;-75
2023/08/12 06:34:27;;;;;;;1.63;1.33;;;20.90;99.90;;;;;;5001692;28;20359;-74
2023/08/12 06:36:53;;;;;;;2.05;1.70;;;21.00;99.90;;;;;;5001938;28;20049;-75
2023/08/12 06:39:18;;;;;;;4.53;1.80;;;21.20;99.90;;;;;;5001443;28;20077;-75
2023/08/12 06:41:44;;;;;;;4.50;1.90;;;21.30;99.90;;;;;;4984078;28;20022;-74
2023/08/12 06:44:09;;;;;;;2.28;1.63;;;21.50;99.90;;;;;;4984036;28;20073;-75
2023/08/12 06:46:35;;;;;;;3.15;2.03;;;21.80;99.90;;;;;;5000628;28;20385;-75
2023/08/12 06:49:01;;;;;;;2.08;1.80;;;22.00;99.90;;;;;;4983818;28;20314;-74
2023/08/12 06:51:26;;;;;;;2.95;1.67;;;22.30;99.90;;;;;;5000029;28;20361;-75
2023/08/12 06:53:52;;;;;;;3.75;1.92;;;22.50;99.90;;;;;;5000906;28;20026;-74
2023/08/12 06:56:17;;;;;;;2.83;1.85;;;22.70;99.90;;;;;;5001357;28;20031;-74
2023/08/12 06:58:43;;;;;;;5.47;1.95;;;22.90;99.90;;;;;;5001276;28;20046;-75
2023/08/12 07:01:09;;;;;;;3.30;1.80;;;23.10;99.90;;;;;;5000243;28;20019;-75
2023/08/12 07:03:34;;;;;;;4.35;1.70;;;23.40;99.90;;;;;;5000723;28;20561;-75
2023/08/12 07:06:00;;;;;;;6.03;1.40;;;24.20;99.90;;;;;;5000763;28;20041;-75
2023/08/12 07:08:27;;;;;;;1.98;1.40;;;25.30;99.90;;;;;;4999289;28;20046;-75
2023/08/12 07:10:53;;;;;;;3.60;1.73;;;25.70;99.90;;;;;;5000613;28;20023;-74
2023/08/12 07:13:18;;;;;;;1.60;1.50;;;26.20;99.90;;;;;;4999826;28;20104;-74
2023/08/12 07:15:44;;;;;;;1.73;1.40;;;26.40;99.90;;;;;;4999441;28;20026;-75
2023/08/12 07:18:10;;;;;;;1.58;1.40;;;26.10;99.90;;;;;;5000716;28;20038;-75
2023/08/12 07:20:35;;;;;;;1.40;1.30;;;25.80;99.90;;;;;;5000611;28;20019;-75
2023/08/12 07:23:01;;;;;;;3.00;1.38;;;25.70;99.90;;;;;;4999832;28;20372;-75
2023/08/12 07:25:26;;;;;;;2.72;1.40;;;25.70;99.90;;;;;;4999052;28;20030;-74
2023/08/12 07:27:52;;;;;;;1.45;1.35;;;25.50;99.90;;;;;;5000547;28;20094;-76
2023/08/12 07:30:18;;;;;;;3.05;1.58;;;25.40;99.90;;;;;;4999346;28;20333;-76
2023/08/12 07:32:43;;;;;;;1.98;1.83;;;25.20;99.90;;;;;;5000622;28;20026;-77
2023/08/12 07:35:09;;;;;;;4.65;2.88;;;24.40;99.90;;;;;;5001069;28;20093;-76
2023/08/12 07:37:35;;;;;;;2.78;1.52;;;23.60;99.90;;;;;;4999315;28;20018;-76
2023/08/12 07:40:00;;;;;;;4.22;2.40;;;22.80;99.90;;;;;;5000429;28;20405;-75
2023/08/12 07:42:26;;;;;;;1.95;1.48;;;22.10;99.90;;;;;;5000296;28;20492;-76
2023/08/12 07:44:52;;;;;;;6.22;2.03;;;21.50;99.90;;;;;;4998894;28;20053;-75
2023/08/12 07:47:18;;;;;;;2.85;2.25;;;21.40;99.90;;;;;;5000913;28;20046;-79
2023/08/12 07:49:44;;;;;;;2.38;1.98;;;21.40;99.90;;;;;;5001056;28;20026;-77
2023/08/12 07:52:10;;;;;;;1.70;1.60;;;21.40;99.90;;;;;;4984055;28;20023;-77
2023/08/12 07:54:35;;;;;;;2.25;1.73;;;21.30;99.90;;;;;;5001058;28;20332;-76
2023/08/12 07:57:01;;;;;;;2.20;1.70;;;21.40;99.90;;;;;;5000785;28;20041;-75
2023/08/12 07:59:27;;;;;;;3.05;2.22;;;21.80;99.90;;;;;;4997165;28;20050;-82
2023/08/12 08:01:52;;;;;;;2.83;1.58;;;22.20;99.90;;;;;;4981815;28;20118;-84
2023/08/12 08:04:18;;;;;;;2.13;1.52;;;22.70;99.90;;;;;;4996800;28;20050;-76
2023/08/12 08:06:44;;;;;;;2.15;1.60;;;23.20;99.90;;;;;;4981208;28;20382;-80
2023/08/12 08:09:10;;;;;;;2.00;1.60;;;23.70;99.90;;;;;;4979629;28;20054;-77
2023/08/12 08:11:36;;;;;;;3.88;1.60;;;23.90;99.90;;;;;;4980060;28;20031;-75
2023/08/12 08:14:02;;;;;;;1.60;1.50;;;23.70;99.90;;;;;;4980716;28;20030;-77
2023/08/12 08:16:27;;;;;;;3.17;1.58;;;23.50;99.90;;;;;;4979184;28;20019;-76
2023/08/12 08:18:53;;;;;;;3.03;1.83;;;23.30;99.90;;;;;;4980433;28;20211;-75
2023/08/12 08:21:19;;;;;;;2.65;2.22;;;23.00;99.90;;;;;;4979700;28;20338;-75
2023/08/12 08:23:45;;;;;;;3.78;1.85;;;22.80;99.90;;;;;;4980784;28;20070;-74
2023/08/12 08:26:11;;;;;;;2.42;1.60;;;22.70;99.90;;;;;;4980743;28;20058;-76
2023/08/12 08:28:38;;;;;;;5.00;2.38;;;22.70;99.90;;;;;;4980319;28;20041;-76
2023/08/12 08:31:04;;;;;;;5.55;1.88;;;22.70;99.90;;;;;;4980406;28;20019;-75
2023/08/12 08:33:30;;;;;;;5.20;1.90;;;22.70;99.90;;;;;;4980699;28;20277;-78
2023/08/12 08:35:56;;;;;;;3.50;1.60;;;22.70;99.90;;;;;;4980806;28;20054;-76
2023/08/12 08:38:21;;;;;;;2.60;1.55;;;22.90;99.90;;;;;;4981023;28;20034;-75
2023/08/12 08:40:50;;;;;;;2.60;1.60;;;23.00;99.90;;;;;;4980617;28;20019;-79
2023/08/12 08:43:24;;;;;;;5.82;2.15;;;23.20;99.90;;;;;;4978853;28;20087;-77
2023/08/12 08:45:53;;;;;;;2.65;1.88;;;23.50;99.90;;;;;;4979752;28;20026;-74
2023/08/12 08:48:22;;;;;;;3.20;1.73;;;23.80;99.90;;;;;;4980591;28;20077;-77
2023/08/12 08:50:48;;;;;;;1.90;1.80;;;24.10;99.90;;;;;;4981825;28;20026;-78
2023/08/12 08:53:15;;;;;;;19.73;2.00;;;24.50;99.90;;;;;;4985363;28;20023;-80
2023/08/12 08:55:41;;;;;;;2.42;1.70;;;24.60;99.90;;;;;;4984324;28;20433;-79
2023/08/12 08:58:07;;;;;;;1.25;1.15;;;24.80;99.90;;;;;;4984381;28;20066;-74
2023/08/12 09:00:33;;;;;;;1.50;1.40;;;24.80;99.90;;;;;;5004221;28;20026;-76
2023/08/12 09:02:59;;;;;;;3.40;1.60;;;24.70;99.90;;;;;;4986470;28;20311;-75
2023/08/12 09:05:26;;;;;;;2.05;1.75;;;24.60;99.90;;;;;;5004137;28;20025;-76
2023/08/12 09:07:54;;;;;;;2.50;1.48;;;24.30;99.90;;;;;;5004457;28;20042;-77
2023/08/12 09:10:21;;;;;;;1.50;1.35;;;24.20;99.90;;;;;;5003722;28;20085;-76
2023/08/12 09:12:47;;;;;;;1.40;1.30;;;24.00;99.90;;;;;;5005408;28;20041;-74
2023/08/12 09:15:12;;;;;;;3.22;1.90;;;24.10;99.90;;;;;;5002504;28;20093;-75
2023/08/12 09:17:38;;;;;;;1.48;1.38;;;24.30;99.90;;;;;;5003173;28;20441;-75
2023/08/12 09:20:11;;;;;;;2.67;1.60;;;24.70;99.90;;;;;;5003194;28;20084;-74
2023/08/12 09:22:37;;;;;;;2.20;1.50;;;25.10;99.90;;;;;;5003797;28;20033;-74
2023/08/12 09:25:04;;;;;;;2.90;1.80;;;25.50;99.90;;;;;;5002975;28;20022;-78
2023/08/12 09:27:31;;;;;;;6.82;2.25;;;25.70;99.90;;;;;;5002938;28;20026;-76
2023/08/12 09:29:57;;;;;;;3.47;2.25;;;25.70;99.90;;;;;;5001977;28;20089;-74
2023/08/12 09:32:23;;;;;;;1.58;1.48;;;25.80;99.90;;;;;;4975232;28;20027;-74
2023/08/12 09:34:55;;;;;;;2.97;2.22;;;26.00;99.90;;;;;;4992213;28;20133;-74
2023/08/12 09:37:23;;;;;;;1.77;1.48;;;26.30;99.90;;;;;;4974678;28;20026;-74
2023/08/12 09:39:50;;;;;;;1.85;1.55;;;27.00;99.90;;;;;;4991263;28;20022;-74
2023/08/12 09:42:17;;;;;;;4.22;1.45;;;26.50;99.90;;;;;;4979195;28;20027;-74
2023/08/12 09:44:43;;;;;;;4.72;1.67;;;26.30;99.90;;;;;;4971768;28;20078;-77
2023/08/12 09:47:09;;;;;;;1.92;1.80;;;26.50;99.90;;;;;;4966477;28;20093;-77
2023/08/12 09:49:39;;;;;;;4.30;2.13;;;26.70;99.90;;;;;;4974620;28;20034;-77
2023/08/12 09:52:05;;;;;;;3.35;1.75;;;26.90;99.90;;;;;;4974402;28;20422;-77
2023/08/12 09:54:36;;;;;;;4.60;1.90;;;27.20;99.90;;;;;;4992293;28;20061;-77
2023/08/12 09:57:06;;;;;;;3.42;2.40;;;27.30;99.90;;;;;;4982428;28;20027;-77
2023/08/12 09:59:34;;;;;;;2.00;1.90;;;27.90;99.90;;;;;;4972788;28;20047;-77
2023/08/12 10:02:03;;;;;;;3.55;2.30;;;27.90;99.90;;;;;;4972243;28;20118;-77
2023/08/12 10:04:41;;;;;;;3.65;1.90;;;27.90;99.90;;;;;;4954863;28;20062;-76
2023/08/12 10:07:09;;;;;;;3.78;2.30;;;28.00;99.90;;;;;;4972343;28;20034;-76
2023/08/12 10:09:39;;;;;;;63.92;28.20;;;28.10;99.90;;;;;;4954565;28;20439;-78
2023/08/12 10:12:06;;;;;;;32.85;15.98;;;28.10;99.90;;;;;;4972875;28;20480;-75
2023/08/12 10:14:33;;;;;;;5.47;3.08;;;28.70;99.90;;;;;;4971302;28;20053;-75
2023/08/12 10:16:59;;;;;;;5.07;2.15;;;29.60;99.90;;;;;;4963214;28;20041;-74
2023/08/12 10:19:25;;;;;;;5.88;2.50;;;29.70;99.90;;;;;;4991575;28;20097;-79
2023/08/12 10:21:56;;;;;;;5.22;2.70;;;29.50;99.90;;;;;;4988830;28;20069;-75
2023/08/12 10:24:23;;;;;;;3.88;1.90;;;29.70;99.90;;;;;;4978066;28;20038;-75
2023/08/12 10:26:51;;;;;;;2.25;2.05;;;30.00;99.90;;;;;;4972172;28;20039;-75
2023/08/12 10:29:16;;;;;;;3.55;2.00;;;30.10;99.90;;;;;;4981590;28;20039;-73
2023/08/12 10:31:44;;;;;;;6.03;2.17;;;30.00;99.90;;;;;;4989825;28;20062;-76
2023/08/12 10:34:21;;;;;;;2.47;2.13;;;29.90;99.90;;;;;;4990998;28;20030;-76
2023/08/12 10:36:48;;;;;;;3.85;1.83;;;30.10;99.90;;;;;;4974001;28;20031;-73
2023/08/12 10:39:14;;;;;;;5.03;2.15;;;30.40;99.90;;;;;;4977920;28;20569;-75
2023/08/12 10:41:51;;;;;;;2.20;1.90;;;30.50;99.90;;;;;;4955416;28;20117;-74
2023/08/12 10:44:19;;;;;;;6.05;2.05;;;30.30;99.90;;;;;;4954054;28;20089;-73
2023/08/12 10:46:50;;;;;;;2.05;1.80;;;30.50;99.90;;;;;;4977800;28;20591;-74
2023/08/12 10:49:18;;;;;;;1.70;1.60;;;30.40;98.30;;;;;;4962506;28;20208;-75
2023/08/12 10:51:43;;;;;;;2.50;1.70;;;30.90;96.30;;;;;;4987342;28;20227;-74
2023/08/12 10:54:29;;;;;;;1.75;1.65;;;31.70;95.30;;;;;;4990969;28;20018;-74
2023/08/12 10:57:08;;;;;;;1.92;1.75;;;32.30;93.30;;;;;;4992306;28;20478;-74
2023/08/12 10:59:46;;;;;;;4.30;1.52;;;32.80;91.70;;;;;;4986471;28;20061;-77
2023/08/12 11:02:32;;;;;;;1.50;1.40;;;32.00;90.90;;;;;;4993064;28;20027;-75
2023/08/12 11:05:02;;;;;;;6.32;2.28;;;31.70;90.30;;;;;;4987763;28;20340;-77
2023/08/12 11:07:49;;;;;;;2.38;1.50;;;31.00;90.20;;;;;;4988521;28;20073;-77
2023/08/12 11:10:25;;;;;;;2.22;1.90;;;30.50;93.00;;;;;;4963008;28;20463;-74
2023/08/12 11:12:55;;;;;;;2.13;2.00;;;30.00;93.10;;;;;;4973263;28;20035;-74
2023/08/12 11:15:37;;;;;;;6.40;2.40;;;29.50;96.20;;;;;;4984820;28;20037;-79
2023/08/12 11:18:08;;;;;;;2.88;2.33;;;29.30;95.60;;;;;;4987153;28;20089;-76
2023/08/12 11:20:36;;;;;;;2.78;2.40;;;28.90;95.50;;;;;;4969054;28;20027;-77
2023/08/12 11:23:03;;;;;;;2.30;2.10;;;28.80;95.50;;;;;;4983293;28;20023;-80
2023/08/12 11:25:30;;;;;;;2.67;2.08;;;28.90;94.70;;;;;;4967658;28;20348;-79
2023/08/12 11:27:57;;;;;;;3.95;2.67;;;29.90;93.90;;;;;;4987881;28;20046;-75
2023/08/12 11:30:23;;;;;;;3.20;2.28;;;30.20;92.70;;;;;;4987080;28;20030;-78
2023/08/12 11:32:50;;;;;;;2.35;1.75;;;29.90;92.90;;;;;;4987062;28;20070;-77
2023/08/12 11:35:17;;;;;;;3.03;2.63;;;30.00;93.00;;;;;;4979588;28;20030;-77
2023/08/12 11:37:47;;;;;;;3.17;2.40;;;30.60;93.70;;;;;;4980116;28;20058;-75
2023/08/12 11:40:14;;;;;;;2.70;2.15;;;31.00;92.40;;;;;;4978665;28;20026;-76
2023/08/12 11:42:42;;;;;;;4.85;2.25;;;31.10;92.90;;;;;;4973686;28;20076;-76
2023/08/12 11:45:09;;;;;;;11.32;1.95;;;31.40;93.70;;;;;;4967463;28;20487;-75
2023/08/12 11:47:35;;;;;;;2.30;2.08;;;31.50;89.00;;;;;;4966673;28;20137;-87
2023/08/12 11:50:09;;;;;;;2.45;2.00;;;32.00;90.30;;;;;;4959121;28;20304;-73
2023/08/12 11:52:36;;;;;;;3.92;2.00;;;33.00;86.10;;;;;;4984285;28;20080;-73
2023/08/12 11:55:02;;;;;;;2.65;2.30;;;33.40;83.30;;;;;;4967990;28;20386;-72
2023/08/12 11:57:28;;;;;;;3.45;2.30;;;33.40;81.90;;;;;;4985221;28;20030;-78
2023/08/12 11:59:59;;;;;;;2.42;1.90;;;34.30;78.40;;;;;;4970415;28;20066;-73
2023/08/12 12:02:25;;;;;;;2.42;2.13;;;34.80;78.70;;;;;;4968651;28;20162;-73
2023/08/12 12:04:54;;;;;;;3.40;2.10;;;35.60;75.00;;;;;;4951195;28;20174;-74
2023/08/12 12:07:27;;;;;;;;;;;35.40;76.20;;;;;;4971126;28;20514;-79
2023/08/12 12:09:54;;;;;;;2.67;1.90;;;35.10;74.50;;;;;;4968665;28;19941;-81
2023/08/12 12:12:25;;;;;;;4.15;1.90;;;33.60;76.10;;;;;;4969908;28;20062;-80
2023/08/12 12:14:56;;;;;;;2.00;1.90;;;33.40;76.70;;;;;;4968201;28;20027;-77
2023/08/12 12:17:23;;;;;;;2.20;1.67;;;33.40;78.90;;;;;;4957700;28;20023;-77
2023/08/12 12:19:59;;;;;;;4.50;2.22;;;32.60;76.80;;;;;;4990566;28;20027;-81
2023/08/12 12:22:29;;;;;;;3.97;1.77;;;32.10;79.40;;;;;;4990028;28;20179;-77
2023/08/12 12:24:59;;;;;;;2.30;2.05;;;32.10;77.40;;;;;;4988841;28;20028;-77
2023/08/12 12:27:25;;;;;;;2.53;2.08;;;32.20;79.10;;;;;;4971598;28;20510;-76
2023/08/12 12:29:50;;;;;;;3.33;1.73;;;32.10;79.60;;;;;;4973002;28;20034;-79
2023/08/12 12:32:19;;;;;;;2.60;2.00;;;31.50;79.10;;;;;;4988580;28;20030;-75
2023/08/12 12:34:46;;;;;;;1.95;1.60;;;32.10;78.00;;;;;;4990424;28;20029;-84
2023/08/12 12:37:12;;;;;;;2.53;1.75;;;32.50;77.20;;;;;;4990246;28;20025;-78
2023/08/12 12:39:38;;;;;;;2.97;1.92;;;32.50;77.30;;;;;;4973577;28;20415;-76
2023/08/12 12:42:04;;;;;;;3.80;2.03;;;32.90;76.50;;;;;;4987833;28;20077;-75
2023/08/12 12:44:30;;;;;;;1.75;1.58;;;32.90;76.60;;;;;;4972247;28;20146;-76
2023/08/12 12:46:55;;;;;;;2.45;1.65;;;33.40;75.10;;;;;;4970148;28;20368;-75